createdAt,value
2022-12-27T00:00:37.625Z,1.30
2022-12-27T00:03:05.355Z,0.90
2022-12-27T00:05:32.725Z,1.30
2022-12-27T00:08:00.273Z,1.20
2022-12-27T00:10:27.656Z,1.13
2022-12-27T00:12:55.014Z,1.23
2022-12-27T00:15:23.667Z,1.30
2022-12-27T00:17:51.110Z,1.07
2022-12-27T00:20:18.545Z,1.77
2022-12-27T00:22:45.903Z,1.33
2022-12-27T00:25:13.271Z,1.10
2022-12-27T00:27:40.627Z,1.13
2022-12-27T00:30:09.695Z,1.00
2022-12-27T00:32:38.346Z,1.00
2022-12-27T00:35:06.511Z,0.93
2022-12-27T00:37:33.867Z,1.10
2022-12-27T00:40:01.209Z,1.10
2022-12-27T00:42:28.551Z,1.00
2022-12-27T00:44:55.872Z,0.80
2022-12-27T00:47:23.218Z,0.90
2022-12-27T00:49:52.127Z,1.17
2022-12-27T00:52:19.557Z,1.00
2022-12-27T00:54:47.214Z,0.77
2022-12-27T00:57:14.556Z,0.50
2022-12-27T00:59:41.951Z,1.10
2022-12-27T01:02:09.481Z,0.90
2022-12-27T01:04:37.199Z,1.03
2022-12-27T01:07:05.870Z,1.20
2022-12-27T01:09:34.193Z,0.87
2022-12-27T01:12:01.519Z,1.10
2022-12-27T01:14:29.003Z,0.90
2022-12-27T01:16:56.346Z,1.43
2022-12-27T01:19:24.367Z,0.93
2022-12-27T01:21:51.698Z,0.77
2022-12-27T01:24:20.395Z,1.00
2022-12-27T01:26:47.767Z,0.80
2022-12-27T01:29:15.221Z,0.80
2022-12-27T01:31:42.618Z,0.80
2022-12-27T01:34:09.970Z,0.73
2022-12-27T01:36:37.700Z,0.90
2022-12-27T01:39:05.434Z,0.70
2022-12-27T01:41:54.229Z,0.87
2022-12-27T01:44:49.428Z,0.53
2022-12-27T01:47:19.949Z,0.70
2022-12-27T01:49:48.787Z,0.90
2022-12-27T01:52:16.537Z,0.87
2022-12-27T01:54:44.077Z,0.70
2022-12-27T01:57:12.749Z,0.80
2022-12-27T01:59:40.504Z,0.70
2022-12-27T02:02:07.996Z,0.97
2022-12-27T02:04:35.995Z,0.90
2022-12-27T02:07:03.359Z,0.70
2022-12-27T02:09:34.379Z,0.80
2022-12-27T02:12:02.352Z,0.73
2022-12-27T02:14:32.285Z,0.83
2022-12-27T02:17:01.481Z,3.37
2022-12-27T02:19:34.444Z,0.67
2022-12-27T02:22:19.745Z,0.70
2022-12-27T02:25:10.080Z,0.90
2022-12-27T02:27:47.527Z,0.70
2022-12-27T02:30:17.255Z,0.87
2022-12-27T02:32:45.879Z,1.40
2022-12-27T02:35:15.496Z,1.00
2022-12-27T02:37:45.882Z,0.60
2022-12-27T02:40:31.771Z,0.30
2022-12-27T02:43:17.001Z,1.27
2022-12-27T02:46:06.547Z,1.50
2022-12-27T02:48:51.503Z,0.70
2022-12-27T02:51:44.018Z,1.10
2022-12-27T02:54:17.362Z,0.60
2022-12-27T02:57:05.251Z,0.80
2022-12-27T03:00:01.739Z,0.80
2022-12-27T03:02:50.050Z,0.67
2022-12-27T03:05:20.537Z,0.77
2022-12-27T03:07:49.853Z,1.33
2022-12-27T03:10:39.413Z,0.70
2022-12-27T03:13:38.419Z,1.00
2022-12-27T03:16:10.080Z,0.73
2022-12-27T03:18:45.045Z,0.33
2022-12-27T03:21:31.592Z,1.33
2022-12-27T03:24:18.095Z,0.63
2022-12-27T03:26:47.989Z,1.10
2022-12-27T03:29:34.114Z,0.90
2022-12-27T03:32:21.802Z,1.33
2022-12-27T03:34:52.347Z,1.30
2022-12-27T03:37:39.388Z,1.40
2022-12-27T03:40:09.368Z,1.13
2022-12-27T03:42:56.724Z,1.10
2022-12-27T03:45:44.430Z,1.40
2022-12-27T03:48:11.955Z,1.07
2022-12-27T03:50:44.617Z,1.47
2022-12-27T03:53:14.099Z,1.30
2022-12-27T03:55:41.522Z,1.60
2022-12-27T03:58:08.863Z,1.30
2022-12-27T04:00:36.297Z,1.70
2022-12-27T04:03:03.710Z,1.60
2022-12-27T04:05:31.272Z,0.80
2022-12-27T04:08:17.757Z,1.50
2022-12-27T04:11:02.747Z,1.67
2022-12-27T04:13:51.566Z,1.50
2022-12-27T04:16:36.450Z,1.23
2022-12-27T04:19:21.603Z,1.13
2022-12-27T04:22:06.484Z,1.20
2022-12-27T04:24:52.745Z,1.43
2022-12-27T04:27:37.578Z,1.13
2022-12-27T04:30:23.098Z,1.20
2022-12-27T04:33:07.992Z,0.20
2022-12-27T04:35:35.380Z,0.87
2022-12-27T04:38:02.717Z,0.40
2022-12-27T04:40:48.941Z,0.80
2022-12-27T04:43:33.745Z,0.83
2022-12-27T04:46:23.919Z,1.10
2022-12-27T04:49:09.465Z,1.10
2022-12-27T04:51:53.427Z,1.03
2022-12-27T04:54:39.304Z,1.00
2022-12-27T04:57:08.313Z,0.70
2022-12-27T04:59:53.558Z,0.53
2022-12-27T05:02:21.025Z,0.20
2022-12-27T05:04:52.053Z,0.77
2022-12-27T05:07:36.940Z,0.33
2022-12-27T05:10:22.875Z,0.80
2022-12-27T05:13:09.583Z,0.87
2022-12-27T05:15:37.044Z,1.23
2022-12-27T05:18:04.500Z,0.80
2022-12-27T05:20:31.916Z,1.10
2022-12-27T05:23:16.942Z,0.70
2022-12-27T05:25:44.860Z,1.10
2022-12-27T05:28:14.890Z,0.93
2022-12-27T05:30:43.059Z,1.00
2022-12-27T05:33:10.532Z,1.20
2022-12-27T05:35:37.994Z,0.60
2022-12-27T05:38:05.970Z,0.70
2022-12-27T05:40:33.671Z,0.70
2022-12-27T05:43:02.752Z,0.40
2022-12-27T05:45:31.502Z,0.57
2022-12-27T05:47:59.892Z,0.57
2022-12-27T05:50:27.531Z,0.80
2022-12-27T05:53:07.955Z,0.60
2022-12-27T05:55:35.480Z,0.40
2022-12-27T05:58:02.833Z,0.63
2022-12-27T06:00:31.510Z,0.73
2022-12-27T06:02:58.959Z,0.40
2022-12-27T06:05:26.394Z,0.57
2022-12-27T06:07:53.745Z,0.70
2022-12-27T06:10:21.168Z,0.80
2022-12-27T06:12:48.483Z,0.20
2022-12-27T06:15:15.832Z,0.40
2022-12-27T06:17:44.782Z,0.57
2022-12-27T06:20:12.119Z,0.90
2022-12-27T06:22:39.439Z,1.03
2022-12-27T06:25:12.437Z,0.50
2022-12-27T06:27:41.775Z,1.23
2022-12-27T06:30:12.011Z,0.63
2022-12-27T06:32:39.610Z,0.90
2022-12-27T06:35:13.271Z,0.60
2022-12-27T06:37:40.692Z,0.37
2022-12-27T06:40:08.478Z,0.50
2022-12-27T06:42:35.848Z,0.50
2022-12-27T06:45:03.222Z,0.90
2022-12-27T06:47:30.544Z,0.53
2022-12-27T06:49:57.881Z,0.60
2022-12-27T06:52:26.675Z,0.23
2022-12-27T06:54:54.003Z,0.90
2022-12-27T06:57:21.331Z,0.70
2022-12-27T06:59:53.821Z,0.53
2022-12-27T07:02:21.672Z,0.60
2022-12-27T07:04:49.100Z,0.50
2022-12-27T07:07:16.429Z,0.90
2022-12-27T07:09:45.093Z,1.00
2022-12-27T07:12:12.461Z,0.43
2022-12-27T07:14:39.980Z,0.37
2022-12-27T07:17:07.332Z,1.17
2022-12-27T07:19:34.695Z,0.33
2022-12-27T07:22:02.039Z,0.30
2022-12-27T07:24:30.855Z,0.27
2022-12-27T07:26:59.729Z,0.50
2022-12-27T07:29:27.578Z,0.60
2022-12-27T07:31:55.019Z,1.00
2022-12-27T07:34:22.835Z,0.70
2022-12-27T07:36:50.216Z,0.60
2022-12-27T07:39:17.592Z,0.67
2022-12-27T07:41:44.920Z,0.63
2022-12-27T07:44:15.901Z,0.47
2022-12-27T07:46:43.249Z,0.47
2022-12-27T07:49:17.183Z,0.73
2022-12-27T07:51:45.210Z,0.47
2022-12-27T07:54:12.572Z,0.60
2022-12-27T07:56:40.203Z,0.80
2022-12-27T07:59:11.695Z,0.90
2022-12-27T08:01:58.123Z,0.83
2022-12-27T08:04:25.943Z,0.80
2022-12-27T08:06:53.333Z,0.40
2022-12-27T08:09:24.584Z,0.70
2022-12-27T08:11:52.016Z,1.00
2022-12-27T08:14:19.383Z,0.90
2022-12-27T08:16:48.117Z,1.30
2022-12-27T08:19:15.652Z,0.80
2022-12-27T08:21:42.971Z,0.40
2022-12-27T08:24:10.310Z,1.20
2022-12-27T08:26:37.891Z,0.70
2022-12-27T08:29:05.211Z,0.80
2022-12-27T08:31:32.597Z,1.17
2022-12-27T08:34:01.465Z,1.13
2022-12-27T08:36:54.083Z,0.90
2022-12-27T08:39:16.173Z,0.67
2022-12-27T08:41:43.517Z,0.90
2022-12-27T08:44:11.254Z,0.73
2022-12-27T08:46:38.763Z,0.40
2022-12-27T08:49:07.722Z,1.00
2022-12-27T08:51:40.625Z,1.20
2022-12-27T08:54:09.056Z,0.50
2022-12-27T08:56:36.402Z,1.30
2022-12-27T08:59:04.226Z,1.00
2022-12-27T09:01:32.521Z,0.57
2022-12-27T09:03:59.981Z,0.70
2022-12-27T09:06:28.737Z,0.60
2022-12-27T09:08:56.806Z,0.80
2022-12-27T09:11:25.202Z,1.37
2022-12-27T09:13:53.136Z,0.73
2022-12-27T09:16:21.464Z,0.80
2022-12-27T09:18:50.066Z,0.70
2022-12-27T09:21:18.020Z,0.60
2022-12-27T09:23:47.248Z,0.67
2022-12-27T09:26:15.659Z,1.17
2022-12-27T09:28:43.482Z,0.60
2022-12-27T09:31:12.075Z,0.60
2022-12-27T09:33:39.853Z,0.80
2022-12-27T09:36:08.518Z,0.50
2022-12-27T09:38:36.253Z,0.90
2022-12-27T09:41:06.932Z,0.73
2022-12-27T09:43:38.450Z,1.03
2022-12-27T09:46:06.645Z,0.93
2022-12-27T09:48:35.986Z,0.73
2022-12-27T09:51:05.505Z,0.80
2022-12-27T09:53:36.763Z,0.90
2022-12-27T09:56:05.598Z,0.80
2022-12-27T09:58:38.739Z,0.90
2022-12-27T10:01:15.606Z,0.13
2022-12-27T10:03:43.003Z,0.70
2022-12-27T10:06:15.318Z,0.53
2022-12-27T10:08:45.511Z,0.60
2022-12-27T10:11:32.442Z,0.17
2022-12-27T10:14:02.363Z,0.23
2022-12-27T10:16:33.301Z,0.80
2022-12-27T10:19:06.558Z,0.50
2022-12-27T10:21:35.846Z,0.90
2022-12-27T10:24:13.651Z,0.60
2022-12-27T10:26:42.316Z,0.77
2022-12-27T10:29:14.815Z,0.60
2022-12-27T10:31:43.447Z,0.53
2022-12-27T10:34:11.381Z,0.77
2022-12-27T10:36:38.797Z,0.30
2022-12-27T10:39:06.983Z,0.83
2022-12-27T10:41:40.453Z,0.63
2022-12-27T10:44:11.789Z,0.90
2022-12-27T10:46:39.767Z,0.70
2022-12-27T10:49:20.752Z,0.10
2022-12-27T10:51:49.552Z,0.93
2022-12-27T10:54:20.815Z,0.60
2022-12-27T10:56:48.383Z,0.70
2022-12-27T10:59:18.091Z,0.80
2022-12-27T11:01:48.042Z,0.20
2022-12-27T11:04:20.884Z,0.70
2022-12-27T11:06:49.799Z,0.27
2022-12-27T11:09:24.529Z,0.60
2022-12-27T11:11:51.923Z,0.73
2022-12-27T11:14:21.539Z,0.60
2022-12-27T11:16:49.633Z,0.23
2022-12-27T11:19:23.549Z,0.47
2022-12-27T11:21:51.500Z,0.37
2022-12-27T11:24:20.798Z,0.97
2022-12-27T11:26:54.257Z,0.40
2022-12-27T11:29:25.231Z,0.70
2022-12-27T11:31:53.019Z,0.67
2022-12-27T11:34:23.941Z,0.33
2022-12-27T11:36:52.359Z,0.43
2022-12-27T11:39:37.690Z,0.30
2022-12-27T11:42:06.477Z,0.53
2022-12-27T11:44:38.727Z,0.50
2022-12-27T11:47:08.653Z,0.20
2022-12-27T11:49:37.804Z,0.67
2022-12-27T11:52:22.834Z,0.50
2022-12-27T11:55:05.106Z,0.80
2022-12-27T11:57:41.765Z,0.53
2022-12-27T12:00:15.087Z,0.30
2022-12-27T12:02:53.835Z,0.60
2022-12-27T12:05:42.033Z,0.53
2022-12-27T12:08:19.433Z,0.40
2022-12-27T12:10:49.425Z,0.10
2022-12-27T12:13:23.835Z,0.20
2022-12-27T12:16:09.828Z,0.30
2022-12-27T12:18:47.310Z,0.53
2022-12-27T12:21:23.961Z,0.63
2022-12-27T12:24:00.760Z,0.20
2022-12-27T12:26:31.300Z,0.50
2022-12-27T12:29:11.673Z,0.60
2022-12-27T12:31:43.892Z,0.30
2022-12-27T12:34:20.679Z,0.20
2022-12-27T12:36:56.065Z,0.57
2022-12-27T12:39:29.563Z,0.77
2022-12-27T12:42:07.472Z,0.80
2022-12-27T12:44:43.756Z,0.40
2022-12-27T12:47:19.461Z,0.40
2022-12-27T12:49:59.524Z,0.60
2022-12-27T12:52:32.165Z,0.30
2022-12-27T12:55:04.162Z,0.50
2022-12-27T12:57:41.167Z,0.43
2022-12-27T13:00:19.751Z,0.70
2022-12-27T13:02:59.634Z,0.37
2022-12-27T13:05:34.471Z,0.43
2022-12-27T13:08:04.881Z,0.60
2022-12-27T13:10:41.806Z,0.50
2022-12-27T13:13:13.477Z,0.47
2022-12-27T13:15:53.161Z,0.90
2022-12-27T13:18:30.205Z,0.93
2022-12-27T13:21:03.439Z,0.70
2022-12-27T13:23:35.255Z,0.50
2022-12-27T13:26:07.621Z,0.60
2022-12-27T13:28:38.443Z,0.17
2022-12-27T13:31:09.995Z,0.70
2022-12-27T13:33:44.600Z,0.40
2022-12-27T13:36:19.160Z,0.90
2022-12-27T13:39:05.306Z,0.87
2022-12-27T13:41:35.593Z,0.50
2022-12-27T13:44:19.267Z,0.70
2022-12-27T13:46:50.367Z,0.60
2022-12-27T13:49:23.773Z,0.60
2022-12-27T13:51:53.295Z,0.50
2022-12-27T13:54:35.620Z,1.13
2022-12-27T13:57:06.991Z,0.83
2022-12-27T13:59:47.302Z,0.83
2022-12-27T14:02:30.477Z,0.50
2022-12-27T14:05:12.084Z,0.20
2022-12-27T14:07:50.786Z,0.70
2022-12-27T14:10:22.643Z,0.60
2022-12-27T14:12:57.643Z,0.40
2022-12-27T14:15:27.703Z,0.43
2022-12-27T14:18:02.127Z,0.87
2022-12-27T14:20:37.700Z,0.70
2022-12-27T14:23:17.270Z,0.90
2022-12-27T14:26:11.113Z,0.83
2022-12-27T14:28:48.319Z,0.40
2022-12-27T14:31:34.306Z,0.60
2022-12-27T14:34:19.350Z,0.63
2022-12-27T14:37:05.612Z,0.67
2022-12-27T14:39:51.856Z,0.60
2022-12-27T14:42:33.745Z,0.53
2022-12-27T14:45:20.209Z,0.30
2022-12-27T14:48:17.970Z,0.47
2022-12-27T14:51:32.706Z,0.80
2022-12-27T14:54:17.643Z,0.43
2022-12-27T14:56:51.380Z,0.60
2022-12-27T14:59:25.949Z,0.87
2022-12-27T15:01:57.673Z,0.70
2022-12-27T15:04:40.092Z,0.57
2022-12-27T15:07:19.743Z,0.70
2022-12-27T15:09:51.623Z,0.50
2022-12-27T15:12:23.769Z,0.60
2022-12-27T15:15:12.222Z,0.70
2022-12-27T15:17:55.037Z,1.03
2022-12-27T15:20:27.998Z,1.00
2022-12-27T15:23:02.062Z,0.60
2022-12-27T15:25:32.214Z,0.60
2022-12-27T15:28:05.011Z,0.77
2022-12-27T15:30:39.098Z,0.50
2022-12-27T15:33:14.553Z,0.80
2022-12-27T15:35:48.899Z,0.90
2022-12-27T15:38:17.123Z,0.93
2022-12-27T15:40:55.363Z,0.67
2022-12-27T15:43:28.028Z,0.97
2022-12-27T15:46:02.901Z,0.90
2022-12-27T15:48:46.062Z,1.00
2022-12-27T15:51:24.365Z,0.87
2022-12-27T15:54:04.690Z,1.37
2022-12-27T15:56:40.983Z,1.20
2022-12-27T15:59:28.551Z,1.27
2022-12-27T16:02:26.660Z,1.20
2022-12-27T16:04:56.796Z,1.23
2022-12-27T16:07:37.857Z,0.93
2022-12-27T16:10:20.156Z,1.10
2022-12-27T16:12:48.695Z,1.47
2022-12-27T16:15:35.152Z,1.63
2022-12-27T16:18:03.130Z,1.70
2022-12-27T16:20:32.829Z,1.10
2022-12-27T16:23:02.083Z,1.40
2022-12-27T16:25:31.805Z,1.30
2022-12-27T16:28:05.216Z,1.27
2022-12-27T16:30:36.848Z,1.17
2022-12-27T16:33:04.455Z,1.07
2022-12-27T16:35:33.497Z,1.27
2022-12-27T16:38:03.737Z,1.10
2022-12-27T16:40:38.985Z,1.20
2022-12-27T16:43:24.965Z,1.30
2022-12-27T16:45:58.678Z,1.10
2022-12-27T16:48:31.030Z,1.80
2022-12-27T16:51:04.357Z,1.40
2022-12-27T16:53:36.871Z,1.67
2022-12-27T16:56:15.900Z,2.17
2022-12-27T16:58:43.703Z,1.40
2022-12-27T17:01:26.210Z,1.60
2022-12-27T17:03:54.045Z,2.80
2022-12-27T17:06:39.925Z,1.80
2022-12-27T17:09:28.706Z,1.63
2022-12-27T17:12:06.486Z,1.53
2022-12-27T17:14:35.597Z,1.70
2022-12-27T17:17:03.977Z,1.57
2022-12-27T17:19:33.543Z,1.20
2022-12-27T17:22:02.549Z,1.63
2022-12-27T17:24:30.340Z,1.57
2022-12-27T17:27:09.584Z,2.10
2022-12-27T17:29:49.674Z,1.57
2022-12-27T17:32:24.832Z,2.00
2022-12-27T17:34:55.956Z,1.60
2022-12-27T17:37:27.629Z,1.33
2022-12-27T17:40:01.489Z,1.57
2022-12-27T17:42:50.209Z,1.73
2022-12-27T17:45:22.660Z,1.80
2022-12-27T17:47:59.570Z,1.50
2022-12-27T17:50:27.917Z,1.17
2022-12-27T17:53:20.529Z,1.67
2022-12-27T17:56:17.487Z,1.60
2022-12-27T17:58:46.256Z,1.60
2022-12-27T18:01:14.233Z,1.60
2022-12-27T18:03:43.927Z,1.40
2022-12-27T18:06:11.630Z,2.00
2022-12-27T18:08:39.095Z,1.70
2022-12-27T18:11:06.874Z,1.50
2022-12-27T18:13:35.176Z,1.30
2022-12-27T18:16:06.653Z,1.40
2022-12-27T18:18:35.270Z,1.43
2022-12-27T18:21:03.956Z,1.23
2022-12-27T18:23:39.492Z,1.50
2022-12-27T18:26:13.136Z,1.50
2022-12-27T18:28:41.105Z,1.90
2022-12-27T18:31:13.725Z,1.57
2022-12-27T18:33:42.629Z,2.50
2022-12-27T18:36:12.650Z,1.93
2022-12-27T18:38:41.666Z,1.80
2022-12-27T18:41:10.260Z,1.70
2022-12-27T18:43:38.595Z,2.00
2022-12-27T18:46:06.249Z,1.73
2022-12-27T18:48:36.226Z,1.20
2022-12-27T18:51:03.902Z,1.20
2022-12-27T18:53:32.598Z,1.30
2022-12-27T18:56:01.062Z,1.17
2022-12-27T18:58:29.637Z,1.13
2022-12-27T19:00:59.967Z,1.10
2022-12-27T19:03:28.196Z,1.40
2022-12-27T19:06:07.544Z,1.70
2022-12-27T19:08:38.206Z,1.13
2022-12-27T19:11:06.805Z,1.33
2022-12-27T19:13:38.977Z,1.30
2022-12-27T19:16:06.724Z,1.30
2022-12-27T19:18:37.160Z,1.20
2022-12-27T19:21:06.901Z,1.03
2022-12-27T19:23:35.639Z,1.10
2022-12-27T19:26:07.108Z,0.87
2022-12-27T19:28:36.253Z,1.13
2022-12-27T19:31:09.539Z,0.90
2022-12-27T19:33:37.420Z,1.10
2022-12-27T19:36:08.011Z,0.87
2022-12-27T19:38:35.429Z,1.20
2022-12-27T19:41:04.300Z,1.20
2022-12-27T19:43:35.218Z,1.27
2022-12-27T19:46:03.107Z,1.63
2022-12-27T19:48:30.490Z,1.40
2022-12-27T19:50:58.612Z,1.50
2022-12-27T19:53:29.524Z,1.43
2022-12-27T19:55:57.981Z,1.53
2022-12-27T19:58:26.925Z,1.13
2022-12-27T20:00:54.737Z,1.60
2022-12-27T20:03:22.443Z,2.33
2022-12-27T20:06:12.668Z,1.47
2022-12-27T20:08:39.881Z,2.73
2022-12-27T20:11:08.684Z,2.43
2022-12-27T20:13:36.099Z,2.40
2022-12-27T20:16:03.621Z,3.00
2022-12-27T20:18:31.339Z,1.87
2022-12-27T20:20:58.916Z,1.13
2022-12-27T20:23:26.327Z,1.67
2022-12-27T20:25:55.007Z,1.33
2022-12-27T20:28:22.375Z,1.40
2022-12-27T20:30:49.717Z,1.40
2022-12-27T20:33:17.206Z,1.23
2022-12-27T20:35:45.426Z,1.20
2022-12-27T20:38:12.959Z,1.10
2022-12-27T20:40:42.335Z,1.23
2022-12-27T20:43:11.106Z,1.13
2022-12-27T20:45:38.491Z,1.27
2022-12-27T20:48:06.002Z,1.03
2022-12-27T20:50:33.329Z,1.37
2022-12-27T20:53:00.685Z,1.30
2022-12-27T20:55:28.028Z,1.40
2022-12-27T20:57:55.356Z,1.13
2022-12-27T21:00:24.001Z,1.27
2022-12-27T21:02:51.502Z,1.30
2022-12-27T21:05:19.146Z,1.13
2022-12-27T21:07:46.597Z,1.47
2022-12-27T21:10:13.937Z,1.20
2022-12-27T21:12:41.276Z,1.10
2022-12-27T21:15:09.058Z,1.73
2022-12-27T21:17:37.957Z,1.10
2022-12-27T21:20:06.215Z,1.00
2022-12-27T21:22:33.565Z,1.20
2022-12-27T21:25:00.915Z,1.30
2022-12-27T21:27:28.351Z,1.40
2022-12-27T21:29:55.710Z,1.30
2022-12-27T21:32:23.265Z,1.30
2022-12-27T21:34:51.955Z,0.93
2022-12-27T21:37:19.317Z,1.20
2022-12-27T21:39:46.698Z,1.10
2022-12-27T21:42:14.448Z,1.13
2022-12-27T21:44:42.032Z,0.83
2022-12-27T21:47:09.393Z,0.90
2022-12-27T21:49:40.310Z,1.27
2022-12-27T21:52:09.107Z,1.23
2022-12-27T21:54:36.453Z,1.50
2022-12-27T21:57:04.112Z,1.20
2022-12-27T21:59:31.572Z,1.20
2022-12-27T22:01:59.160Z,1.43
2022-12-27T22:04:26.964Z,1.33
2022-12-27T22:06:54.322Z,1.10
2022-12-27T22:09:23.871Z,1.00
2022-12-27T22:11:51.236Z,1.20
2022-12-27T22:14:21.972Z,1.00
2022-12-27T22:16:52.742Z,1.00
2022-12-27T22:19:20.249Z,0.97
2022-12-27T22:21:47.669Z,3.40
2022-12-27T22:24:19.247Z,3.73
2022-12-27T22:26:49.904Z,6.70
2022-12-27T22:29:18.745Z,5.30
2022-12-27T22:31:46.526Z,4.97
2022-12-27T22:34:14.337Z,3.97
2022-12-27T22:36:41.731Z,5.27
2022-12-27T22:39:09.540Z,3.30
2022-12-27T22:41:37.489Z,3.33
2022-12-27T22:44:07.857Z,1.70
2022-12-27T22:49:22.566Z,0.90
2022-12-27T22:51:49.959Z,1.10
2022-12-27T22:54:19.804Z,1.10
2022-12-27T22:56:47.147Z,0.83
2022-12-27T22:59:17.055Z,1.30
2022-12-27T23:01:45.652Z,1.20
2022-12-27T23:04:13.903Z,0.80
2022-12-27T23:06:41.559Z,0.90
2022-12-27T23:09:08.999Z,1.07
2022-12-27T23:11:37.508Z,1.00
2022-12-27T23:14:09.228Z,0.90
2022-12-27T23:16:38.424Z,0.90
2022-12-27T23:19:05.818Z,0.77
2022-12-27T23:21:33.290Z,0.70
2022-12-27T23:24:00.659Z,1.03
2022-12-27T23:26:28.194Z,0.70
2022-12-27T23:28:55.550Z,0.83
2022-12-27T23:31:24.081Z,1.00
2022-12-27T23:33:53.445Z,0.90
2022-12-27T23:36:21.404Z,0.93
2022-12-27T23:38:49.376Z,0.80
2022-12-27T23:41:17.522Z,1.00
2022-12-27T23:43:54.382Z,0.60
2022-12-27T23:46:24.799Z,0.80
2022-12-27T23:48:54.227Z,0.63
2022-12-27T23:51:21.827Z,1.10
2022-12-27T23:53:49.859Z,0.77
2022-12-27T23:56:18.271Z,0.80
2022-12-27T23:58:49.020Z,1.13
